This is the latest recevied weather packets stored in our database for station/object SV9TNF-57. If no packets are shown the sender has not sent any weather packets the latest 10 day(s).
| Time | Temp. | Humidity | Pressure | Rain* | Wind** | Luminosity | Snow |
|---|---|---|---|---|---|---|---|
| 1788619665 | 30° C | 54% | 997.2 hPa | 0 mm | 0.89 m/s, 156° | - | - |
| 1788619366 | 29.44° C | 55% | 997.3 hPa | 0 mm | 0.45 m/s, 171° | - | - |
| 1788619065 | 29.44° C | 58% | 997.5 hPa | 0 mm | 1.34 m/s, 305° | - | - |
| 1788618765 | 28.89° C | 60% | 997.1 hPa | 0 mm | 0.45 m/s, 157° | - | - |
| 1788618465 | 29.44° C | 60% | 997.2 hPa | 0 mm | 7.15 m/s, 144° | - | - |
| 1788618165 | 29.44° C | 60% | 997 hPa | 0 mm | 2.68 m/s, 112° | - | - |
| 1788617865 | 28.89° C | 63% | 997.2 hPa | 0 mm | 0 m/s | - | - |
| 1788617565 | 29.44° C | 63% | 997.3 hPa | 0 mm | 2.68 m/s, 189° | - | - |
| 1788617296 | 29.44° C | 62% | 997.2 hPa | 0 mm | 1.79 m/s, 181° | - | - |
| 1788616965 | 30° C | 61% | 997.2 hPa | 0 mm | 3.58 m/s, 242° | - | - |
| 1788616664 | 30.56° C | 55% | 997 hPa | 0 mm | 1.34 m/s, 207° | - | - |
| 1788616365 | 29.44° C | 60% | 996.8 hPa | 0 mm | 13.86 m/s, 106° | - | - |
| 1788616065 | 28.89° C | 61% | 997.1 hPa | 0 mm | 11.18 m/s, 182° | - | - |
| 1788615764 | 29.44° C | 61% | 997.1 hPa | 0 mm | 6.26 m/s, 283° | - | - |
| 1788615464 | 29.44° C | 61% | 997.2 hPa | 0 mm | 0.45 m/s, 100° | - | - |
| 1788615164 | 29.44° C | 59% | 997.2 hPa | 0 mm | 4.92 m/s, 124° | - | - |
| 1788614864 | 29.44° C | 57% | 997.2 hPa | 0 mm | 0 m/s | - | - |
| 1788614564 | 31.11° C | 50% | 997.2 hPa | 0 mm | 1.34 m/s, 257° | - | - |
| 1788614264 | 31.11° C | 39% | 997.1 hPa | 0 mm | 1.34 m/s, 231° | - | - |
| 1788613964 | 30.56° C | 36% | 997 hPa | 0 mm | 0 m/s | - | - |
| 1788613663 | 31.11° C | 35% | 997 hPa | 0 mm | 7.15 m/s, 331° | - | - |
| 1788613363 | 30.56° C | 36% | 996.9 hPa | 0 mm | 9.83 m/s, 321° | - | - |
| 1788613063 | 30.56° C | 36% | 996.7 hPa | 0 mm | 4.47 m/s, 299° | - | - |
| 1788612763 | 30.56° C | 36% | 996.7 hPa | 0 mm | 0.89 m/s, 258° | - | - |
| 1788612463 | 30.56° C | 37% | 996.8 hPa | 0 mm | 8.49 m/s, 331° | - | - |
* Rain latest hour (hover to see other rain measurements)
** Current wind speed in m/s (hover to see current wind gust speed)